createdAt,value
2022-08-22T00:00:17.776Z,90.25
2022-08-22T00:02:47.157Z,89.83
2022-08-22T00:03:03.075Z,89.70
2022-08-22T00:03:07.364Z,89.91
2022-08-22T00:06:00.949Z,90.30
2022-08-22T00:08:38.985Z,90.30
2022-08-22T00:11:18.782Z,90.20
2022-08-22T00:14:01.771Z,90.29
2022-08-22T00:16:28.535Z,90.57
2022-08-22T00:18:53.232Z,90.40
2022-08-22T00:21:37.700Z,90.11
2022-08-22T00:23:54.964Z,90.35
2022-08-22T00:26:18.926Z,90.65
2022-08-22T00:28:32.913Z,90.66
2022-08-22T00:30:57.412Z,90.41
2022-08-22T00:33:11.753Z,90.36
2022-08-22T00:35:20.931Z,90.33
2022-08-22T00:37:26.990Z,90.18
2022-08-22T00:39:54.631Z,90.34
2022-08-22T00:42:38.653Z,90.36
2022-08-22T00:45:12.354Z,90.12
2022-08-22T00:47:33.453Z,90.40
2022-08-22T00:49:59.875Z,90.61
2022-08-22T00:52:38.902Z,90.31
2022-08-22T00:55:10.042Z,90.33
2022-08-22T00:57:56.096Z,90.00
2022-08-22T01:00:24.533Z,90.29
2022-08-22T01:02:52.694Z,90.11
2022-08-22T01:05:37.923Z,90.28
2022-08-22T01:08:00.057Z,90.68
2022-08-22T01:10:36.958Z,90.54
2022-08-22T01:13:23.943Z,90.67
2022-08-22T01:15:38.153Z,90.57
2022-08-22T01:18:17.771Z,90.50
2022-08-22T01:20:50.153Z,90.41
2022-08-22T01:23:26.954Z,90.06
2022-08-22T01:25:59.964Z,90.30
2022-08-22T01:28:34.218Z,90.26
2022-08-22T01:31:11.958Z,90.39
2022-08-22T01:33:55.356Z,91.02
2022-08-22T01:36:35.914Z,90.93
2022-08-22T01:38:56.927Z,91.30
2022-08-22T01:41:27.152Z,91.33
2022-08-22T01:44:03.637Z,91.60
2022-08-22T01:46:42.952Z,91.66
2022-08-22T01:49:14.414Z,91.73
2022-08-22T01:51:34.074Z,91.99
2022-08-22T01:53:41.674Z,92.26
2022-08-22T01:56:19.773Z,92.05
2022-08-22T01:58:31.573Z,92.37
2022-08-22T02:01:32.712Z,91.94
2022-08-22T02:04:08.349Z,92.08
2022-08-22T02:06:25.893Z,92.28
2022-08-22T02:08:49.853Z,92.19
2022-08-22T02:11:11.505Z,91.82
2022-08-22T02:13:39.928Z,91.91
2022-08-22T02:16:13.032Z,91.86
2022-08-22T02:18:40.997Z,91.93
2022-08-22T02:21:06.949Z,91.65
2022-08-22T02:23:38.927Z,91.52
2022-08-22T02:26:12.492Z,91.48
2022-08-22T02:28:57.049Z,91.57
2022-08-22T02:31:16.917Z,91.28
2022-08-22T02:33:34.442Z,91.53
2022-08-22T02:35:59.653Z,91.38
2022-08-22T02:38:29.073Z,91.65
2022-08-22T02:40:58.774Z,91.30
2022-08-22T02:43:54.193Z,91.32
2022-08-22T02:46:17.738Z,91.03
2022-08-22T02:48:49.812Z,91.22
2022-08-22T02:51:27.512Z,91.34
2022-08-22T02:54:08.394Z,91.14
2022-08-22T02:56:29.942Z,91.37
2022-08-22T02:58:59.155Z,91.19
2022-08-22T03:01:25.619Z,91.12
2022-08-22T03:03:37.412Z,91.27
2022-08-22T03:06:01.443Z,91.29
2022-08-22T03:08:20.083Z,91.12
2022-08-22T03:10:30.393Z,91.43
2022-08-22T03:12:59.983Z,91.05
2022-08-22T03:15:17.008Z,90.79
2022-08-22T03:17:33.097Z,90.96
2022-08-22T03:19:54.115Z,90.82
2022-08-22T03:22:06.515Z,90.77
2022-08-22T03:24:56.983Z,90.38
2022-08-22T03:27:32.830Z,90.54
2022-08-22T03:29:49.970Z,90.21
2022-08-22T03:32:13.354Z,89.90
2022-08-22T03:34:23.699Z,89.94
2022-08-22T03:36:29.952Z,89.83
2022-08-22T03:38:33.131Z,90.06
2022-08-22T03:40:50.053Z,89.96
2022-08-22T03:43:26.833Z,89.82
2022-08-22T03:45:35.652Z,90.16
2022-08-22T03:48:16.513Z,89.95
2022-08-22T03:50:54.595Z,89.61
2022-08-22T03:53:18.624Z,90.16
2022-08-22T03:56:04.075Z,89.56
2022-08-22T03:58:27.877Z,89.85
2022-08-22T04:00:51.023Z,89.51
2022-08-22T04:03:39.152Z,89.92
2022-08-22T04:06:00.036Z,89.32
2022-08-22T04:08:30.966Z,89.74
2022-08-22T04:11:04.893Z,89.80
2022-08-22T04:13:27.533Z,89.72
2022-08-22T04:16:17.835Z,89.98
2022-08-22T04:18:48.144Z,89.82
2022-08-22T04:21:47.053Z,89.72
2022-08-22T04:24:21.247Z,89.32
2022-08-22T04:26:37.340Z,89.33
2022-08-22T04:28:49.331Z,89.40
2022-08-22T04:31:01.532Z,89.32
2022-08-22T04:33:27.254Z,89.31
2022-08-22T04:36:03.536Z,89.27
2022-08-22T04:38:15.986Z,89.30
2022-08-22T04:40:48.947Z,89.50
2022-08-22T04:43:03.672Z,89.65
2022-08-22T04:45:41.961Z,89.99
2022-08-22T04:48:09.852Z,89.76
2022-08-22T04:50:26.566Z,89.96
2022-08-22T04:52:50.833Z,90.30
2022-08-22T04:54:58.001Z,89.98
2022-08-22T04:57:21.923Z,90.01
2022-08-22T04:59:25.981Z,90.10
2022-08-22T05:01:45.211Z,89.58
2022-08-22T05:03:59.494Z,89.90
2022-08-22T05:06:07.601Z,90.17
2022-08-22T05:08:19.992Z,90.15
2022-08-22T05:10:39.895Z,90.24
2022-08-22T05:12:55.075Z,90.23
2022-08-22T05:15:30.612Z,90.31
2022-08-22T05:17:36.675Z,90.14
2022-08-22T05:19:46.515Z,90.23
2022-08-22T05:21:51.853Z,90.31
2022-08-22T05:24:14.592Z,90.33
2022-08-22T05:26:20.133Z,90.27
2022-08-22T05:28:39.393Z,90.32
2022-08-22T05:30:47.493Z,90.21
2022-08-22T05:33:32.955Z,90.34
2022-08-22T05:35:50.797Z,90.57
2022-08-22T05:37:58.047Z,90.67
2022-08-22T05:40:02.742Z,90.46
2022-08-22T05:42:14.093Z,90.51
2022-08-22T05:44:21.072Z,90.73
2022-08-22T05:46:38.394Z,90.56
2022-08-22T05:48:50.948Z,90.62
2022-08-22T05:51:23.161Z,90.57
2022-08-22T05:53:42.731Z,90.58
2022-08-22T05:55:48.987Z,90.66
2022-08-22T05:58:31.083Z,90.73
2022-08-22T06:00:43.173Z,90.68
2022-08-22T06:03:19.542Z,90.57
2022-08-22T06:05:29.302Z,90.80
2022-08-22T06:07:43.932Z,90.65
2022-08-22T06:09:46.963Z,90.73
2022-08-22T06:12:00.865Z,90.78
2022-08-22T06:14:37.842Z,91.02
2022-08-22T06:17:20.174Z,90.99
2022-08-22T06:19:25.810Z,90.85
2022-08-22T06:21:37.695Z,91.18
2022-08-22T06:24:09.763Z,91.06
2022-08-22T06:26:21.188Z,90.67
2022-08-22T06:28:29.875Z,91.11
2022-08-22T06:30:37.033Z,90.89
2022-08-22T06:33:00.256Z,91.01
2022-08-22T06:35:17.712Z,91.13
2022-08-22T06:37:32.073Z,91.19
2022-08-22T06:39:42.051Z,91.04
2022-08-22T06:41:57.589Z,90.81
2022-08-22T06:44:04.927Z,91.05
2022-08-22T06:46:10.418Z,91.44
2022-08-22T06:48:19.940Z,91.39
2022-08-22T06:50:35.111Z,91.30
2022-08-22T06:53:07.823Z,91.27
2022-08-22T06:55:12.984Z,91.43
2022-08-22T06:57:39.383Z,91.45
2022-08-22T06:59:46.133Z,91.55
2022-08-22T07:02:10.983Z,91.47
2022-08-22T07:04:16.482Z,91.55
2022-08-22T07:06:36.053Z,91.44
2022-08-22T07:08:43.175Z,91.13
2022-08-22T07:11:15.960Z,90.75
2022-08-22T07:13:20.832Z,91.29
2022-08-22T07:15:37.652Z,91.13
2022-08-22T07:17:53.133Z,91.23
2022-08-22T07:20:08.294Z,91.44
2022-08-22T07:22:39.949Z,91.06
2022-08-22T07:24:53.155Z,91.30
2022-08-22T07:27:37.984Z,91.15
2022-08-22T07:30:16.143Z,90.82
2022-08-22T07:32:52.969Z,91.13
2022-08-22T07:35:38.264Z,90.97
2022-08-22T07:38:16.690Z,91.00
2022-08-22T07:40:54.791Z,90.94
2022-08-22T07:43:30.144Z,91.22
2022-08-22T07:45:48.792Z,91.31
2022-08-22T07:48:26.249Z,91.22
2022-08-22T07:51:08.076Z,91.45
2022-08-22T07:53:41.952Z,91.53
2022-08-22T07:56:03.391Z,91.63
2022-08-22T07:58:15.294Z,91.74
2022-08-22T08:00:25.082Z,91.80
2022-08-22T08:03:06.511Z,91.38
2022-08-22T08:05:17.585Z,91.46
2022-08-22T08:07:35.410Z,91.55
2022-08-22T08:10:01.340Z,91.67
2022-08-22T08:12:13.122Z,91.59
2022-08-22T08:14:22.665Z,91.83
2022-08-22T08:16:33.555Z,92.21
2022-08-22T08:18:42.053Z,91.96
2022-08-22T08:21:07.564Z,91.86
2022-08-22T08:23:16.372Z,92.13
2022-08-22T08:25:30.734Z,92.37
2022-08-22T08:27:39.253Z,92.44
2022-08-22T08:29:59.540Z,92.63
2022-08-22T08:32:07.112Z,92.56
2022-08-22T08:34:23.717Z,92.43
2022-08-22T08:36:38.783Z,92.57
2022-08-22T08:39:25.946Z,92.26
2022-08-22T08:42:22.284Z,92.61
2022-08-22T08:45:32.905Z,92.96
2022-08-22T08:47:56.934Z,93.14
2022-08-22T08:50:21.381Z,93.12
2022-08-22T08:53:07.760Z,92.66
2022-08-22T08:55:36.161Z,92.82
2022-08-22T09:01:45.053Z,92.80
2022-08-22T09:04:25.959Z,92.79
2022-08-22T09:07:15.547Z,93.07
2022-08-22T09:10:00.969Z,93.23
2022-08-22T09:13:11.842Z,93.21
2022-08-22T09:16:10.882Z,93.14
2022-08-22T09:18:36.826Z,92.90
2022-08-22T09:21:30.414Z,92.79
2022-08-22T09:24:16.369Z,92.82
2022-08-22T09:26:57.198Z,93.03
2022-08-22T09:29:54.882Z,93.08
2022-08-22T09:32:19.998Z,92.95
2022-08-22T09:34:44.104Z,93.46
2022-08-22T09:37:22.946Z,92.83
2022-08-22T09:39:51.116Z,92.85
2022-08-22T09:42:10.044Z,92.54
2022-08-22T09:44:53.975Z,93.28
2022-08-22T09:47:25.034Z,93.08
2022-08-22T09:49:44.904Z,93.09
2022-08-22T09:52:04.814Z,93.22
2022-08-22T09:54:32.817Z,93.15
2022-08-22T09:57:23.364Z,92.96
2022-08-22T10:00:04.545Z,93.05
2022-08-22T10:02:22.474Z,92.62
2022-08-22T10:05:09.586Z,92.39
2022-08-22T10:07:42.164Z,92.16
2022-08-22T10:10:16.974Z,92.41
2022-08-22T10:12:56.085Z,92.39
2022-08-22T10:15:36.873Z,92.02
2022-08-22T10:17:57.065Z,92.46
2022-08-22T10:20:22.936Z,92.56
2022-08-22T10:22:39.995Z,92.63
2022-08-22T10:25:18.944Z,92.21
2022-08-22T10:27:54.971Z,92.14
2022-08-22T10:30:21.725Z,92.08
2022-08-22T10:33:02.904Z,92.52
2022-08-22T10:36:15.919Z,92.55
2022-08-22T10:39:11.605Z,92.30
2022-08-22T10:43:28.778Z,92.34
2022-08-22T10:45:43.000Z,91.91
2022-08-22T10:52:34.817Z,91.61
2022-08-22T10:54:56.964Z,91.62
2022-08-22T10:57:38.184Z,91.68
2022-08-22T11:16:10.276Z,92.21
2022-08-22T11:19:01.854Z,91.94
2022-08-22T11:21:12.850Z,92.29
2022-08-22T11:23:48.310Z,92.43
2022-08-22T11:26:29.970Z,92.26
2022-08-22T11:29:12.356Z,92.04
2022-08-22T11:31:55.106Z,92.10
2022-08-22T11:34:17.030Z,92.10
2022-08-22T11:36:51.936Z,92.41
2022-08-22T11:39:28.645Z,92.20
2022-08-22T11:41:53.120Z,91.81
2022-08-22T11:44:11.985Z,92.01
2022-08-22T11:46:31.247Z,91.83
2022-08-22T11:49:09.055Z,92.00
2022-08-22T11:52:03.732Z,91.58
2022-08-22T11:55:04.464Z,91.88
2022-08-22T11:57:45.062Z,91.93
2022-08-22T12:00:27.950Z,91.36
2022-08-22T12:02:47.976Z,91.28
2022-08-22T12:05:11.311Z,90.85
2022-08-22T12:07:40.965Z,90.94
2022-08-22T12:10:13.534Z,90.85
2022-08-22T12:12:42.767Z,91.20
2022-08-22T12:15:48.960Z,91.20
2022-08-22T12:19:23.052Z,90.81
2022-08-22T12:22:06.923Z,90.87
2022-08-22T12:24:47.245Z,90.62
2022-08-22T12:30:17.945Z,90.19
2022-08-22T12:33:06.168Z,90.03
2022-08-22T12:43:56.305Z,90.98
2022-08-22T13:32:08.703Z,91.60
2022-08-22T13:34:39.551Z,91.48
2022-08-22T13:48:21.625Z,90.53
2022-08-22T13:53:08.444Z,90.38
2022-08-22T14:29:03.121Z,90.48
2022-08-22T14:33:19.238Z,90.95
2022-08-22T14:39:44.094Z,90.62
2022-08-22T14:42:18.685Z,90.45
2022-08-22T14:45:25.725Z,90.63
2022-08-22T14:48:29.876Z,90.69
2022-08-22T14:51:04.529Z,90.76
2022-08-22T14:53:47.745Z,90.61
2022-08-22T14:56:32.914Z,90.77
2022-08-22T15:02:25.963Z,90.64
2022-08-22T15:06:13.944Z,90.68
2022-08-22T15:12:55.783Z,90.76
2022-08-22T15:15:52.852Z,90.51
2022-08-22T15:18:32.005Z,90.49
2022-08-22T15:20:45.446Z,90.46
2022-08-22T15:23:11.094Z,90.63
2022-08-22T15:25:46.889Z,90.44
2022-08-22T15:28:53.206Z,90.57
2022-08-22T15:31:34.171Z,90.39
2022-08-22T15:34:04.093Z,90.35
2022-08-22T15:36:41.705Z,90.69
2022-08-22T15:39:45.878Z,90.74
2022-08-22T15:42:35.175Z,90.75
2022-08-22T15:44:53.817Z,91.02
2022-08-22T15:47:53.511Z,90.96
2022-08-22T15:50:42.285Z,90.90
2022-08-22T15:53:43.124Z,90.82
2022-08-22T15:56:10.953Z,90.73
2022-08-22T15:58:48.162Z,90.50
2022-08-22T16:01:35.090Z,90.57
2022-08-22T16:04:11.744Z,90.37
2022-08-22T16:06:52.422Z,90.56
2022-08-22T16:09:31.744Z,90.46
2022-08-22T16:11:40.455Z,90.73
2022-08-22T16:13:46.846Z,90.16
2022-08-22T16:16:09.483Z,90.41
2022-08-22T16:18:41.642Z,90.48
2022-08-22T16:20:59.167Z,90.56
2022-08-22T16:23:23.003Z,90.72
2022-08-22T16:25:48.944Z,90.83
2022-08-22T16:27:59.803Z,90.80
2022-08-22T16:30:16.144Z,90.99
2022-08-22T16:32:27.942Z,91.12
2022-08-22T16:34:44.082Z,91.31
2022-08-22T16:37:13.923Z,91.25
2022-08-22T16:39:23.945Z,90.96
2022-08-22T16:41:39.143Z,91.21
2022-08-22T16:43:55.166Z,90.97
2022-08-22T16:45:59.744Z,91.18
2022-08-22T16:48:25.044Z,90.91
2022-08-22T16:50:37.143Z,90.83
2022-08-22T16:53:18.983Z,90.90
2022-08-22T16:55:35.123Z,90.96
2022-08-22T16:58:06.132Z,91.21
2022-08-22T17:00:34.533Z,90.94
2022-08-22T17:02:51.923Z,90.97
2022-08-22T17:05:19.002Z,90.78
2022-08-22T17:07:49.642Z,90.86
2022-08-22T17:10:12.933Z,91.36
2022-08-22T17:12:25.943Z,91.00
2022-08-22T17:14:52.267Z,91.09
2022-08-22T17:17:13.345Z,91.09
2022-08-22T17:19:47.970Z,91.12
2022-08-22T17:22:05.964Z,91.43
2022-08-22T17:24:48.931Z,91.55
2022-08-22T17:27:01.544Z,91.34
2022-08-22T17:29:19.157Z,91.38
2022-08-22T17:31:42.543Z,91.35
2022-08-22T17:34:21.264Z,91.60
2022-08-22T17:36:51.768Z,91.77
2022-08-22T17:39:16.063Z,91.66
2022-08-22T17:41:50.165Z,92.14
2022-08-22T17:44:08.103Z,91.86
2022-08-22T17:49:47.755Z,91.64
2022-08-22T17:52:27.821Z,92.07
2022-08-22T17:55:04.590Z,91.67
2022-08-22T17:57:52.122Z,91.54
2022-08-22T18:00:27.354Z,91.81
2022-08-22T18:03:01.984Z,92.00
2022-08-22T18:17:07.095Z,92.43
2022-08-22T18:38:00.384Z,93.33
2022-08-22T19:07:55.664Z,94.67
2022-08-22T19:10:51.197Z,94.64
2022-08-22T19:17:58.805Z,94.85
2022-08-22T19:31:45.245Z,95.13
2022-08-22T19:35:09.755Z,95.38
2022-08-22T19:38:06.725Z,95.41
2022-08-22T19:41:01.498Z,95.37
2022-08-22T19:43:54.348Z,95.59
2022-08-22T19:53:46.553Z,95.89
2022-08-22T19:56:25.239Z,95.76
2022-08-22T19:59:20.465Z,96.05
2022-08-22T20:05:44.158Z,96.42
2022-08-22T20:09:01.809Z,96.33
2022-08-22T20:12:15.766Z,96.25
2022-08-22T20:18:47.323Z,95.92
2022-08-22T20:21:55.726Z,96.21
2022-08-22T20:24:25.767Z,96.32
2022-08-22T20:32:38.940Z,96.29
2022-08-22T20:35:53.569Z,96.37
2022-08-22T20:38:20.640Z,95.91
2022-08-22T20:41:11.382Z,96.35
2022-08-22T20:43:56.586Z,95.97
2022-08-22T20:47:11.242Z,96.30
2022-08-22T20:50:09.553Z,95.89
2022-08-22T20:53:32.087Z,95.95
2022-08-22T20:56:27.107Z,96.01
2022-08-22T20:59:08.264Z,95.96
2022-08-22T21:01:27.873Z,96.12
2022-08-22T21:03:57.842Z,96.11
2022-08-22T21:06:44.354Z,96.15
2022-08-22T21:09:23.391Z,96.26
2022-08-22T21:11:40.394Z,96.26
2022-08-22T21:13:55.760Z,96.21
2022-08-22T21:16:39.960Z,96.12
2022-08-22T21:18:56.945Z,96.22
2022-08-22T21:25:14.690Z,96.52
2022-08-22T21:27:54.284Z,96.38
2022-08-22T21:30:08.876Z,96.38
2022-08-22T21:32:46.562Z,96.06
2022-08-22T21:35:01.534Z,96.38
2022-08-22T21:37:42.606Z,96.35
2022-08-22T21:40:45.393Z,96.31
2022-08-22T21:43:22.161Z,96.35
2022-08-22T21:45:47.881Z,96.51
2022-08-22T21:47:58.806Z,96.31
2022-08-22T21:50:49.941Z,96.38
2022-08-22T21:53:27.050Z,96.18
2022-08-22T21:55:47.537Z,96.30
2022-08-22T21:58:35.562Z,96.51
2022-08-22T22:00:54.977Z,96.43
2022-08-22T22:03:04.899Z,96.54
2022-08-22T22:05:18.119Z,96.52
2022-08-22T22:07:26.117Z,96.45
2022-08-22T22:09:31.481Z,96.72
2022-08-22T22:11:36.985Z,96.58
2022-08-22T22:13:44.487Z,96.68
2022-08-22T22:15:52.703Z,96.37
2022-08-22T22:17:59.060Z,96.36
2022-08-22T22:20:13.957Z,96.43
2022-08-22T22:22:18.125Z,96.39
2022-08-22T22:24:23.884Z,96.65
2022-08-22T22:26:30.926Z,96.47
2022-08-22T22:28:42.663Z,96.49
2022-08-22T22:30:51.164Z,96.54
2022-08-22T22:32:56.303Z,96.58
2022-08-22T22:35:00.295Z,96.56
2022-08-22T22:37:06.784Z,96.53
2022-08-22T22:39:13.630Z,96.51
2022-08-22T22:41:18.356Z,96.58
2022-08-22T22:43:22.669Z,96.31
2022-08-22T22:45:30.685Z,96.37
2022-08-22T22:47:36.012Z,96.47
2022-08-22T22:49:39.973Z,96.33
2022-08-22T22:51:45.048Z,96.45
2022-08-22T22:53:49.883Z,96.32
2022-08-22T22:55:59.582Z,96.34
2022-08-22T22:58:05.932Z,96.37
2022-08-22T23:00:12.143Z,96.13
2022-08-22T23:02:22.080Z,96.27
2022-08-22T23:04:26.957Z,96.12
2022-08-22T23:06:33.383Z,95.90
2022-08-22T23:08:37.704Z,95.72
2022-08-22T23:10:41.907Z,95.45
2022-08-22T23:12:46.123Z,95.66
2022-08-22T23:14:49.993Z,95.79
2022-08-22T23:16:57.925Z,95.76
2022-08-22T23:19:02.221Z,95.67
2022-08-22T23:21:19.664Z,95.81
2022-08-22T23:23:24.583Z,95.83
2022-08-22T23:25:28.990Z,96.08
2022-08-22T23:27:32.987Z,95.78
2022-08-22T23:29:40.905Z,95.82
2022-08-22T23:31:53.310Z,95.80
2022-08-22T23:34:03.364Z,95.90
2022-08-22T23:36:14.944Z,95.86
2022-08-22T23:38:20.178Z,96.06
2022-08-22T23:40:25.884Z,96.35
2022-08-22T23:42:30.736Z,95.91
2022-08-22T23:44:36.924Z,96.12
2022-08-22T23:46:40.503Z,95.89
2022-08-22T23:48:44.945Z,96.35
2022-08-22T23:50:48.917Z,96.35
2022-08-22T23:52:51.982Z,96.22
2022-08-22T23:54:56.729Z,96.33
2022-08-22T23:57:03.723Z,96.34
2022-08-22T23:59:20.424Z,96.47
